Time;durP1;ratioP1;P1;durP2;ratioP2;P2;SDS_P1;SDS_P2;PMS_P1;PMS_P2;Temp;Humidity;BMP_temperature;BMP_pressure;BME280_temperature;BME280_humidity;BME280_pressure;Samples;Min_cycle;Max_cycle;Signal;HPM_P1;HPM_P2
2022/06/16 00:00:56;;;;;;;4.40;3.77;;;;;;;;;;4993063;28;20196;-76
2022/06/16 00:03:23;;;;;;;6.40;3.53;;;;;;;;;;4991955;28;20172;-76
2022/06/16 00:05:50;;;;;;;4.10;3.30;;;;;;;;;;4991359;28;20230;-76
2022/06/16 00:08:18;;;;;;;4.77;3.60;;;;;;;;;;4992222;28;20243;-76
2022/06/16 00:13:34;;;;;;;5.80;4.40;;;;;;;;;;4993368;28;20230;-76
2022/06/16 00:16:00;;;;;;;6.37;3.90;;;;;;;;;;4992133;28;20211;-76
2022/06/16 00:18:27;;;;;;;6.17;3.87;;;;;;;;;;4989628;28;20191;-76
2022/06/16 00:20:53;;;;;;;4.97;3.63;;;;;;;;;;4992182;28;20188;-76
2022/06/16 00:23:20;;;;;;;6.40;4.80;;;;;;;;;;4989108;28;20187;-76
2022/06/16 00:25:46;;;;;;;6.43;4.80;;;;;;;;;;4992519;28;20614;-76
2022/06/16 00:28:12;;;;;;;6.73;4.37;;;;;;;;;;4998300;28;20218;-76
2022/06/16 00:30:38;;;;;;;5.57;4.40;;;;;;;;;;4998697;28;20195;-76
2022/06/16 00:33:05;;;;;;;6.83;4.33;;;;;;;;;;4994407;28;20188;-77
2022/06/16 00:35:31;;;;;;;7.73;4.93;;;;;;;;;;4995206;28;20518;-76
2022/06/16 00:37:58;;;;;;;7.43;4.70;;;;;;;;;;4997001;28;20208;-77
2022/06/16 00:40:24;;;;;;;7.00;4.80;;;;;;;;;;5010527;28;20203;-78
2022/06/16 00:42:50;;;;;;;5.00;4.10;;;;;;;;;;4996307;28;20191;-76
2022/06/16 00:45:35;;;;;;;6.67;4.50;;;;;;;;;;4991983;28;20168;-76
2022/06/16 00:48:02;;;;;;;5.03;4.43;;;;;;;;;;4990891;28;20231;-76
2022/06/16 00:50:28;;;;;;;8.03;4.70;;;;;;;;;;5004679;28;20645;-76
2022/06/16 00:52:55;;;;;;;4.83;4.03;;;;;;;;;;4994152;28;20191;-76
2022/06/16 00:55:21;;;;;;;6.50;4.83;;;;;;;;;;4994502;28;20179;-76
2022/06/16 00:57:49;;;;;;;6.83;5.10;;;;;;;;;;4994432;28;20207;-76
2022/06/16 01:02:47;;;;;;;7.47;5.03;;;;;;;;;;5005240;28;20211;-76
2022/06/16 01:05:14;;;;;;;5.20;4.70;;;;;;;;;;4996734;28;20175;-76
2022/06/16 01:07:42;;;;;;;6.93;5.30;;;;;;;;;;5018017;28;20211;-76
2022/06/16 01:10:09;;;;;;;5.83;4.83;;;;;;;;;;4992408;28;20219;-76
2022/06/16 01:15:34;;;;;;;5.97;5.00;;;;;;;;;;4983766;28;20183;-77
2022/06/16 01:18:03;;;;;;;6.33;5.43;;;;;;;;;;4995110;28;20577;-76
2022/06/16 01:20:29;;;;;;;6.03;4.87;;;;;;;;;;4996966;28;20179;-76
2022/06/16 01:23:05;;;;;;;8.67;5.40;;;;;;;;;;4999201;28;20706;-76
2022/06/16 01:25:50;;;;;;;6.63;4.73;;;;;;;;;;5009203;28;20532;-76
2022/06/16 01:28:20;;;;;;;6.10;5.50;;;;;;;;;;5006750;28;20216;-76
2022/06/16 01:30:52;;;;;;;6.93;5.13;;;;;;;;;;5007053;28;20266;-76
2022/06/16 01:33:23;;;;;;;6.00;5.37;;;;;;;;;;4997230;28;20665;-76
2022/06/16 01:36:08;;;;;;;7.73;6.10;;;;;;;;;;5015926;28;20551;-77
2022/06/16 01:38:42;;;;;;;8.80;6.00;;;;;;;;;;5008542;28;20175;-76
2022/06/16 01:41:18;;;;;;;7.33;6.10;;;;;;;;;;4988374;28;20184;-76
2022/06/16 01:43:48;;;;;;;7.10;6.10;;;;;;;;;;4994495;28;20270;-76
2022/06/16 01:46:18;;;;;;;6.10;5.50;;;;;;;;;;4982674;28;20190;-76
2022/06/16 01:48:49;;;;;;;7.37;6.40;;;;;;;;;;5002975;28;20273;-76
2022/06/16 01:51:32;;;;;;;6.67;5.97;;;;;;;;;;5004387;28;20187;-76
2022/06/16 01:54:04;;;;;;;8.97;5.73;;;;;;;;;;5009493;28;20171;-76
2022/06/16 01:56:40;;;;;;;5.83;5.20;;;;;;;;;;4993962;28;20214;-76
2022/06/16 01:59:13;;;;;;;6.30;5.17;;;;;;;;;;5001362;28;20230;-76
2022/06/16 02:01:42;;;;;;;6.13;5.50;;;;;;;;;;4990104;28;20195;-76
2022/06/16 02:04:12;;;;;;;9.43;6.17;;;;;;;;;;5007423;28;20404;-76
2022/06/16 02:06:41;;;;;;;6.93;6.13;;;;;;;;;;4972183;28;20247;-76
2022/06/16 02:09:10;;;;;;;6.83;6.00;;;;;;;;;;4989814;28;20720;-76
2022/06/16 02:11:37;;;;;;;7.00;5.87;;;;;;;;;;5004624;28;20186;-76
2022/06/16 02:14:23;;;;;;;7.57;5.93;;;;;;;;;;4984425;28;20184;-76
2022/06/16 02:16:54;;;;;;;6.27;5.20;;;;;;;;;;4988002;28;20207;-76
2022/06/16 02:19:23;;;;;;;7.63;6.00;;;;;;;;;;4972148;28;20689;-76
2022/06/16 02:21:52;;;;;;;7.47;5.90;;;;;;;;;;4989131;28;20271;-76
2022/06/16 02:24:20;;;;;;;7.10;6.40;;;;;;;;;;5001464;28;20202;-76
2022/06/16 02:26:47;;;;;;;7.90;6.23;;;;;;;;;;4990807;28;20557;-76
2022/06/16 02:29:25;;;;;;;7.73;6.23;;;;;;;;;;4988829;28;20211;-76
2022/06/16 02:31:52;;;;;;;6.67;5.47;;;;;;;;;;4955307;28;20628;-76
2022/06/16 02:34:55;;;;;;;9.77;7.00;;;;;;;;;;5006405;28;20192;-76
2022/06/16 02:37:39;;;;;;;6.63;5.90;;;;;;;;;;4933475;29;20209;-77
2022/06/16 02:40:23;;;;;;;8.50;5.90;;;;;;;;;;4986096;28;21503;-76
2022/06/16 02:42:57;;;;;;;7.10;6.40;;;;;;;;;;4990686;28;20223;-76
2022/06/16 02:45:43;;;;;;;6.00;5.30;;;;;;;;;;5010176;28;20245;-76
2022/06/16 02:48:16;;;;;;;6.77;4.90;;;;;;;;;;4997471;28;20572;-76
2022/06/16 02:51:06;;;;;;;5.37;4.40;;;;;;;;;;4979935;28;20659;-76
2022/06/16 02:53:45;;;;;;;7.70;5.07;;;;;;;;;;5000575;28;20871;-76
2022/06/16 02:56:15;;;;;;;5.60;5.10;;;;;;;;;;5004104;28;20188;-76
2022/06/16 02:58:42;;;;;;;10.23;5.43;;;;;;;;;;4981820;28;20199;-76
2022/06/16 03:01:10;;;;;;;6.03;4.90;;;;;;;;;;4977545;28;20184;-76
2022/06/16 03:03:37;;;;;;;6.97;5.00;;;;;;;;;;5006823;28;20175;-76
2022/06/16 03:06:12;;;;;;;5.20;4.70;;;;;;;;;;5003714;28;20230;-76
2022/06/16 03:08:46;;;;;;;7.23;4.77;;;;;;;;;;4995279;28;20199;-75
2022/06/16 03:11:14;;;;;;;4.90;4.50;;;;;;;;;;5009168;28;20188;-76
2022/06/16 03:13:42;;;;;;;7.57;4.40;;;;;;;;;;5003460;28;20185;-76
2022/06/16 03:16:10;;;;;;;4.87;4.37;;;;;;;;;;5006743;28;20591;-76
2022/06/16 03:18:37;;;;;;;4.80;4.30;;;;;;;;;;5007523;28;20184;-76
2022/06/16 03:21:05;;;;;;;5.43;4.57;;;;;;;;;;5008393;28;20184;-76
2022/06/16 03:23:31;;;;;;;6.80;4.70;;;;;;;;;;4981367;28;20184;-76
2022/06/16 03:25:59;;;;;;;6.97;5.07;;;;;;;;;;5010023;28;20188;-76
2022/06/16 03:28:26;;;;;;;5.37;4.80;;;;;;;;;;4991180;28;20219;-75
2022/06/16 03:30:52;;;;;;;6.27;5.17;;;;;;;;;;4988789;28;20319;-75
2022/06/16 03:33:20;;;;;;;7.23;5.33;;;;;;;;;;5002460;28;20184;-76
2022/06/16 03:35:50;;;;;;;5.90;5.10;;;;;;;;;;4988996;28;20182;-75
2022/06/16 03:38:40;;;;;;;6.13;5.40;;;;;;;;;;5008222;28;20257;-76
2022/06/16 03:41:07;;;;;;;6.33;5.13;;;;;;;;;;5009536;28;20200;-76
2022/06/16 03:43:33;;;;;;;6.03;5.07;;;;;;;;;;4994849;28;20192;-76
2022/06/16 03:46:11;;;;;;;7.00;4.80;;;;;;;;;;4995671;28;20311;-76
2022/06/16 03:48:39;;;;;;;6.10;4.30;;;;;;;;;;4990532;28;20192;-75
2022/06/16 03:51:06;;;;;;;8.40;5.07;;;;;;;;;;5003149;28;20176;-76
2022/06/16 03:53:33;;;;;;;5.97;5.33;;;;;;;;;;4978010;28;20202;-76
2022/06/16 03:56:00;;;;;;;7.30;5.63;;;;;;;;;;4987948;28;20709;-75
2022/06/16 03:58:26;;;;;;;6.63;5.70;;;;;;;;;;4991772;28;20184;-76
2022/06/16 04:00:53;;;;;;;6.13;5.53;;;;;;;;;;5008894;28;20191;-75
2022/06/16 04:06:10;;;;;;;5.63;4.93;;;;;;;;;;4991325;28;20866;-75
2022/06/16 04:08:37;;;;;;;5.83;5.30;;;;;;;;;;5001193;28;20215;-76
2022/06/16 04:11:26;;;;;;;7.20;5.40;;;;;;;;;;4973617;28;20613;-76
2022/06/16 04:13:50;;;;;;;5.77;5.27;;;;;;;;;;5006215;28;20187;-75
2022/06/16 04:16:17;;;;;;;6.33;5.47;;;;;;;;;;5007642;28;20211;-75
2022/06/16 04:18:44;;;;;;;6.67;5.27;;;;;;;;;;5011607;28;20219;-76
2022/06/16 04:21:13;;;;;;;5.40;4.90;;;;;;;;;;4991360;28;20219;-76
2022/06/16 04:23:47;;;;;;;6.00;5.40;;;;;;;;;;4995636;28;20191;-76
2022/06/16 04:26:15;;;;;;;6.83;5.63;;;;;;;;;;4996427;28;20183;-75
2022/06/16 04:28:45;;;;;;;6.03;5.50;;;;;;;;;;4978977;28;20259;-76
2022/06/16 04:31:12;;;;;;;6.63;6.00;;;;;;;;;;5007100;28;20437;-76
2022/06/16 04:33:38;;;;;;;6.97;6.30;;;;;;;;;;4979567;28;20215;-75
2022/06/16 04:36:07;;;;;;;10.57;7.20;;;;;;;;;;5006929;28;20192;-76
2022/06/16 04:38:38;;;;;;;7.70;6.90;;;;;;;;;;4959481;28;20188;-76
2022/06/16 04:41:06;;;;;;;7.40;6.33;;;;;;;;;;4989544;28;20211;-76
2022/06/16 04:43:33;;;;;;;6.70;5.33;;;;;;;;;;4987930;28;20184;-75
2022/06/16 04:46:03;;;;;;;10.43;6.90;;;;;;;;;;4987042;28;20188;-76
2022/06/16 04:48:37;;;;;;;9.53;5.90;;;;;;;;;;4990447;28;20226;-75
2022/06/16 04:51:08;;;;;;;11.00;7.10;;;;;;;;;;5007448;28;20532;-76
2022/06/16 04:53:35;;;;;;;7.00;6.30;;;;;;;;;;4994542;28;20212;-76
2022/06/16 04:56:07;;;;;;;9.70;6.37;;;;;;;;;;4990940;28;20298;-76
2022/06/16 04:58:43;;;;;;;7.70;6.00;;;;;;;;;;5006856;28;20186;-75
2022/06/16 05:01:22;;;;;;;7.43;5.50;;;;;;;;;;4987423;28;20257;-75
2022/06/16 05:04:09;;;;;;;6.57;5.50;;;;;;;;;;4990931;28;20666;-75
2022/06/16 05:07:11;;;;;;;9.23;5.60;;;;;;;;;;4979712;28;20221;-75
2022/06/16 05:10:02;;;;;;;6.17;5.57;;;;;;;;;;4978016;28;20220;-75
2022/06/16 05:12:44;;;;;;;9.47;5.87;;;;;;;;;;4980955;28;20270;-76
2022/06/16 05:15:29;;;;;;;6.10;5.57;;;;;;;;;;4989560;28;20197;-75
2022/06/16 05:18:15;;;;;;;7.67;5.20;;;;;;;;;;4985423;28;20860;-75
2022/06/16 05:21:09;;;;;;;6.53;5.30;;;;;;;;;;5015170;28;20191;-75
2022/06/16 05:23:43;;;;;;;5.43;4.93;;;;;;;;;;4991640;28;20250;-75
2022/06/16 05:26:31;;;;;;;4.93;4.20;;;;;;;;;;4997225;28;20688;-76
2022/06/16 05:29:08;;;;;;;6.77;4.93;;;;;;;;;;4990539;28;20223;-76
2022/06/16 05:31:57;;;;;;;6.30;5.60;;;;;;;;;;4985072;28;20195;-75
2022/06/16 05:34:56;;;;;;;8.77;5.53;;;;;;;;;;4986030;28;20195;-75
2022/06/16 05:37:34;;;;;;;6.33;5.70;;;;;;;;;;4994769;28;20211;-76
2022/06/16 05:40:20;;;;;;;7.73;6.07;;;;;;;;;;5007403;28;20557;-75
2022/06/16 05:43:21;;;;;;;7.17;6.20;;;;;;;;;;4988608;28;20186;-75
2022/06/16 05:46:04;;;;;;;7.37;6.10;;;;;;;;;;5000621;28;20191;-75
2022/06/16 05:48:34;;;;;;;6.30;5.70;;;;;;;;;;4983344;28;20211;-76
2022/06/16 05:51:05;;;;;;;7.57;5.97;;;;;;;;;;4992878;28;20211;-76
2022/06/16 05:53:33;;;;;;;8.90;6.40;;;;;;;;;;5011256;28;20179;-77
2022/06/16 05:55:59;;;;;;;8.13;6.13;;;;;;;;;;5006229;28;20582;-75
2022/06/16 05:58:31;;;;;;;6.67;6.00;;;;;;;;;;5005996;28;20195;-77
2022/06/16 06:00:58;;;;;;;6.00;5.40;;;;;;;;;;5006722;28;20192;-77
2022/06/16 06:03:26;;;;;;;6.57;5.10;;;;;;;;;;4986995;28;20190;-77
2022/06/16 06:05:53;;;;;;;5.80;5.20;;;;;;;;;;4989643;28;20176;-77
2022/06/16 06:16:39;;;;;;;6.03;5.10;;;;;;;;;;4991256;28;20207;-77
2022/06/16 06:19:25;;;;;;;5.37;4.30;;;;;;;;;;4999273;28;20657;-78
2022/06/16 06:22:05;;;;;;;4.63;4.10;;;;;;;;;;4998787;28;20180;-79
2022/06/16 06:24:36;;;;;;;6.70;4.00;;;;;;;;;;4993866;28;20183;-77
2022/06/16 06:27:11;;;;;;;3.67;3.30;;;;;;;;;;4993363;28;20276;-77
2022/06/16 06:29:37;;;;;;;4.43;3.30;;;;;;;;;;5010134;28;20229;-77
2022/06/16 06:32:04;;;;;;;5.97;3.80;;;;;;;;;;4992155;28;20195;-79
2022/06/16 06:34:31;;;;;;;4.63;3.90;;;;;;;;;;5006222;28;20175;-77
2022/06/16 06:36:57;;;;;;;5.40;3.97;;;;;;;;;;5002239;28;20204;-77
2022/06/16 06:39:23;;;;;;;5.80;3.90;;;;;;;;;;4972970;28;20255;-77
2022/06/16 06:41:50;;;;;;;4.17;3.50;;;;;;;;;;4990099;28;20187;-77
2022/06/16 06:44:16;;;;;;;3.70;3.23;;;;;;;;;;5017872;28;20656;-77
2022/06/16 06:46:42;;;;;;;4.73;3.70;;;;;;;;;;4989703;28;21017;-77
2022/06/16 06:49:09;;;;;;;5.90;3.70;;;;;;;;;;4989002;28;20844;-77
2022/06/16 06:51:35;;;;;;;4.20;3.77;;;;;;;;;;4988134;28;20184;-79
2022/06/16 06:54:02;;;;;;;4.97;3.40;;;;;;;;;;4991119;28;20187;-80
2022/06/16 06:56:29;;;;;;;4.50;3.53;;;;;;;;;;4989340;28;20206;-79
2022/06/16 06:58:56;;;;;;;3.43;3.13;;;;;;;;;;4992525;28;20191;-76
2022/06/16 07:01:23;;;;;;;3.80;3.37;;;;;;;;;;5005128;28;20192;-77
2022/06/16 07:03:50;;;;;;;4.43;3.80;;;;;;;;;;4992698;28;20183;-76
2022/06/16 07:06:17;;;;;;;3.57;3.27;;;;;;;;;;4994539;28;20195;-77
2022/06/16 07:08:43;;;;;;;5.07;3.20;;;;;;;;;;4990592;28;20274;-76
2022/06/16 07:11:10;;;;;;;3.93;3.27;;;;;;;;;;4985379;28;20198;-77
2022/06/16 07:13:36;;;;;;;5.93;3.57;;;;;;;;;;5008206;28;20602;-79
2022/06/16 07:16:02;;;;;;;6.30;3.50;;;;;;;;;;4989500;28;20193;-77
2022/06/16 07:18:28;;;;;;;4.97;3.60;;;;;;;;;;4992526;28;20536;-77
2022/06/16 07:20:54;;;;;;;4.03;3.53;;;;;;;;;;4992387;28;20198;-77
2022/06/16 07:23:21;;;;;;;5.40;3.27;;;;;;;;;;4995740;28;20208;-76
2022/06/16 07:25:48;;;;;;;6.00;3.57;;;;;;;;;;5009288;28;20218;-76
2022/06/16 07:28:14;;;;;;;5.13;3.30;;;;;;;;;;4995771;28;20269;-77
2022/06/16 07:30:41;;;;;;;3.50;3.20;;;;;;;;;;4996546;28;20172;-77
2022/06/16 07:33:07;;;;;;;4.43;3.30;;;;;;;;;;5008813;28;20187;-76
2022/06/16 07:35:34;;;;;;;5.63;3.27;;;;;;;;;;4993603;28;20180;-76
2022/06/16 07:38:01;;;;;;;4.13;3.10;;;;;;;;;;5002602;28;20261;-77
2022/06/16 07:40:27;;;;;;;4.57;3.40;;;;;;;;;;4996146;28;20720;-77
2022/06/16 07:42:56;;;;;;;3.67;3.20;;;;;;;;;;4994718;28;20179;-76
2022/06/16 07:45:26;;;;;;;4.93;3.57;;;;;;;;;;5009911;28;20182;-76
2022/06/16 07:47:53;;;;;;;4.73;3.27;;;;;;;;;;4993160;28;20206;-76
2022/06/16 07:50:20;;;;;;;4.37;3.43;;;;;;;;;;4994179;28;20642;-77
2022/06/16 07:52:46;;;;;;;4.87;3.23;;;;;;;;;;4997067;28;20184;-77
2022/06/16 07:55:13;;;;;;;4.87;3.40;;;;;;;;;;4994589;28;20192;-78
2022/06/16 07:57:43;;;;;;;4.87;3.43;;;;;;;;;;5001670;28;20212;-76
2022/06/16 08:00:11;;;;;;;3.77;3.30;;;;;;;;;;4993205;28;20222;-77
2022/06/16 08:02:40;;;;;;;4.73;3.47;;;;;;;;;;4991299;28;20176;-77
2022/06/16 08:05:07;;;;;;;6.10;3.43;;;;;;;;;;4998718;28;20195;-76
2022/06/16 08:07:33;;;;;;;4.70;3.13;;;;;;;;;;4995149;28;20203;-76
2022/06/16 08:09:59;;;;;;;4.70;3.53;;;;;;;;;;4994618;28;20306;-76
2022/06/16 08:12:26;;;;;;;8.17;3.40;;;;;;;;;;4998129;28;20681;-77
2022/06/16 08:14:52;;;;;;;3.97;3.27;;;;;;;;;;4991602;28;20206;-76
2022/06/16 08:17:24;;;;;;;4.07;3.20;;;;;;;;;;4991753;28;20386;-78
2022/06/16 08:19:51;;;;;;;5.87;3.27;;;;;;;;;;4991286;28;20282;-76
2022/06/16 08:22:18;;;;;;;4.33;3.23;;;;;;;;;;4994796;28;20183;-76
2022/06/16 08:24:47;;;;;;;3.53;3.07;;;;;;;;;;4998230;28;20238;-77
2022/06/16 08:27:14;;;;;;;4.93;3.20;;;;;;;;;;4996613;28;20211;-76
2022/06/16 08:29:42;;;;;;;4.63;3.30;;;;;;;;;;5010727;28;20964;-78
2022/06/16 08:32:09;;;;;;;5.80;3.40;;;;;;;;;;4992029;28;20191;-76
2022/06/16 08:34:35;;;;;;;5.07;3.20;;;;;;;;;;4981921;28;20187;-76
2022/06/16 08:37:01;;;;;;;5.10;3.53;;;;;;;;;;4993301;28;20720;-77
2022/06/16 08:39:27;;;;;;;5.73;3.17;;;;;;;;;;4992791;28;20193;-78
2022/06/16 08:42:01;;;;;;;6.97;3.37;;;;;;;;;;4989122;28;20192;-77
2022/06/16 08:44:50;;;;;;;5.23;2.93;;;;;;;;;;4993148;28;20187;-77
2022/06/16 08:47:22;;;;;;;6.57;3.37;;;;;;;;;;4987498;28;20220;-76
2022/06/16 08:50:07;;;;;;;6.53;3.60;;;;;;;;;;4994833;28;20211;-76
2022/06/16 08:52:33;;;;;;;8.40;3.20;;;;;;;;;;4988182;28;20179;-77
2022/06/16 08:55:05;;;;;;;4.97;3.37;;;;;;;;;;4989807;28;20266;-77
2022/06/16 08:57:34;;;;;;;3.97;3.20;;;;;;;;;;4993137;28;20203;-78
2022/06/16 09:00:06;;;;;;;6.67;3.30;;;;;;;;;;4996437;28;20254;-76
2022/06/16 09:02:38;;;;;;;3.90;3.20;;;;;;;;;;4993585;28;20234;-77
2022/06/16 09:05:17;;;;;;;4.43;3.10;;;;;;;;;;4991389;28;20196;-77
2022/06/16 09:07:54;;;;;;;5.60;3.70;;;;;;;;;;4991014;28;20298;-77
2022/06/16 09:10:23;;;;;;;3.40;3.10;;;;;;;;;;4989705;28;20299;-77
2022/06/16 09:13:05;;;;;;;7.47;3.30;;;;;;;;;;4995482;28;20187;-76
2022/06/16 09:15:49;;;;;;;4.57;3.20;;;;;;;;;;4997012;28;20187;-76
2022/06/16 09:18:19;;;;;;;5.70;3.43;;;;;;;;;;4995865;28;20201;-78
2022/06/16 09:20:53;;;;;;;5.47;3.10;;;;;;;;;;4992710;28;20190;-79
2022/06/16 09:23:46;;;;;;;5.63;3.30;;;;;;;;;;4985108;28;20219;-76
2022/06/16 09:26:19;;;;;;;6.20;3.40;;;;;;;;;;4991610;28;20271;-75
2022/06/16 09:28:58;;;;;;;5.37;3.23;;;;;;;;;;4996197;28;20278;-76
2022/06/16 09:31:32;;;;;;;4.23;3.20;;;;;;;;;;4992871;28;22127;-75
2022/06/16 09:34:02;;;;;;;6.47;3.47;;;;;;;;;;4990463;28;20200;-76
2022/06/16 09:36:32;;;;;;;5.57;3.50;;;;;;;;;;5005755;28;20216;-75
2022/06/16 09:39:16;;;;;;;7.97;3.60;;;;;;;;;;5002605;28;20204;-76
2022/06/16 09:44:45;;;;;;;7.27;3.40;;;;;;;;;;4990663;28;20641;-75
2022/06/16 09:47:13;;;;;;;5.10;3.43;;;;;;;;;;4992886;28;20218;-76
2022/06/16 09:49:42;;;;;;;4.73;3.57;;;;;;;;;;5007476;28;20203;-77
2022/06/16 09:52:18;;;;;;;4.83;3.47;;;;;;;;;;4992933;28;20203;-76
2022/06/16 09:54:47;;;;;;;5.10;3.27;;;;;;;;;;4996743;28;20190;-75
2022/06/16 09:57:16;;;;;;;4.97;3.63;;;;;;;;;;4992369;28;20206;-78
2022/06/16 09:59:45;;;;;;;7.73;4.30;;;;;;;;;;4987372;28;20196;-78
2022/06/16 10:02:20;;;;;;;3.63;3.20;;;;;;;;;;4968068;28;20310;-76
2022/06/16 10:04:49;;;;;;;5.87;3.20;;;;;;;;;;4995234;28;20716;-78
2022/06/16 10:07:34;;;;;;;5.00;3.50;;;;;;;;;;4994290;28;20208;-79
2022/06/16 10:10:14;;;;;;;5.13;3.47;;;;;;;;;;4986839;28;22580;-79
2022/06/16 10:12:46;;;;;;;8.00;3.40;;;;;;;;;;4992100;28;20570;-79
2022/06/16 10:15:13;;;;;;;5.53;3.40;;;;;;;;;;4992207;28;20178;-79
2022/06/16 10:17:40;;;;;;;3.90;3.30;;;;;;;;;;4993693;28;20288;-79
2022/06/16 10:20:06;;;;;;;4.83;3.77;;;;;;;;;;4992517;28;21301;-79
2022/06/16 10:22:35;;;;;;;4.30;3.40;;;;;;;;;;5004813;28;20197;-79
2022/06/16 10:25:16;;;;;;;7.20;3.60;;;;;;;;;;4995246;28;20214;-79
2022/06/16 10:28:08;;;;;;;6.37;3.80;;;;;;;;;;4995593;28;20222;-79
2022/06/16 10:30:36;;;;;;;5.03;3.73;;;;;;;;;;4967048;28;20751;-79
2022/06/16 10:33:17;;;;;;;7.87;3.67;;;;;;;;;;4995785;28;20245;-79
2022/06/16 10:35:53;;;;;;;7.83;3.50;;;;;;;;;;4998553;28;20280;-79
2022/06/16 10:38:37;;;;;;;5.30;3.27;;;;;;;;;;4994136;28;20222;-79
2022/06/16 10:41:06;;;;;;;7.20;3.03;;;;;;;;;;4996506;28;20198;-79
2022/06/16 10:43:37;;;;;;;5.90;3.43;;;;;;;;;;4985821;28;20191;-79
2022/06/16 10:46:09;;;;;;;4.63;3.40;;;;;;;;;;4995550;28;20188;-78
2022/06/16 10:48:37;;;;;;;7.30;3.57;;;;;;;;;;4987179;28;20711;-78
2022/06/16 10:51:09;;;;;;;6.50;3.20;;;;;;;;;;4993331;28;20681;-78
2022/06/16 10:53:37;;;;;;;4.83;2.90;;;;;;;;;;4997267;28;20230;-79
2022/06/16 10:56:06;;;;;;;4.33;3.00;;;;;;;;;;4983172;28;20191;-78
2022/06/16 10:58:42;;;;;;;4.87;2.87;;;;;;;;;;4987850;28;20642;-78
2022/06/16 11:01:18;;;;;;;4.83;3.07;;;;;;;;;;4990911;28;20198;-78
2022/06/16 11:03:48;;;;;;;6.50;2.80;;;;;;;;;;4993353;28;20187;-79
2022/06/16 11:06:18;;;;;;;5.93;2.70;;;;;;;;;;5003239;28;20869;-79
2022/06/16 11:08:49;;;;;;;11.73;3.50;;;;;;;;;;4983829;28;20757;-79
2022/06/16 11:11:17;;;;;;;6.07;3.07;;;;;;;;;;4988330;28;20191;-78
2022/06/16 11:13:50;;;;;;;4.47;3.00;;;;;;;;;;4989748;28;20294;-79
2022/06/16 11:16:24;;;;;;;4.23;3.00;;;;;;;;;;4988794;28;20187;-78
2022/06/16 11:18:53;;;;;;;6.43;3.00;;;;;;;;;;4990103;28;20190;-78
2022/06/16 11:21:38;;;;;;;4.43;2.80;;;;;;;;;;5008552;28;20187;-78
2022/06/16 11:24:08;;;;;;;5.70;2.93;;;;;;;;;;4995462;28;20652;-78
2022/06/16 11:26:35;;;;;;;4.03;3.00;;;;;;;;;;4989517;28;20219;-78
2022/06/16 11:29:01;;;;;;;3.93;2.67;;;;;;;;;;4991126;28;20207;-78
2022/06/16 11:31:37;;;;;;;4.33;2.73;;;;;;;;;;4991647;28;20189;-78
2022/06/16 11:34:08;;;;;;;3.97;2.80;;;;;;;;;;5000849;28;20173;-78
2022/06/16 11:36:44;;;;;;;3.83;2.90;;;;;;;;;;4988194;28;20274;-78
2022/06/16 11:39:16;;;;;;;3.47;2.93;;;;;;;;;;4990008;28;20196;-78
2022/06/16 11:41:43;;;;;;;4.73;2.70;;;;;;;;;;4989532;28;20266;-78
2022/06/16 11:44:15;;;;;;;3.10;2.80;;;;;;;;;;4994456;28;20196;-79
2022/06/16 11:46:45;;;;;;;4.73;3.03;;;;;;;;;;5001125;28;20553;-78
2022/06/16 11:49:30;;;;;;;7.53;3.00;;;;;;;;;;5007113;28;20225;-78
2022/06/16 11:52:03;;;;;;;4.50;2.73;;;;;;;;;;4993451;28;20185;-78
2022/06/16 11:54:44;;;;;;;3.90;2.50;;;;;;;;;;4999344;28;20177;-78
2022/06/16 11:57:19;;;;;;;2.77;2.57;;;;;;;;;;4990241;28;20214;-78
2022/06/16 11:59:56;;;;;;;3.60;2.63;;;;;;;;;;4990623;28;20601;-78
2022/06/16 12:02:41;;;;;;;3.00;2.70;;;;;;;;;;4986369;28;20216;-78
2022/06/16 12:05:08;;;;;;;3.53;2.60;;;;;;;;;;4991672;28;20275;-78
2022/06/16 12:07:52;;;;;;;3.20;2.37;;;;;;;;;;4998641;28;20648;-78
2022/06/16 12:10:37;;;;;;;2.93;2.63;;;;;;;;;;4989148;28;20224;-78
2022/06/16 12:13:22;;;;;;;2.93;2.63;;;;;;;;;;4993436;28;20561;-78
2022/06/16 12:15:57;;;;;;;3.77;2.60;;;;;;;;;;4991045;28;20190;-77
2022/06/16 12:18:35;;;;;;;3.60;2.97;;;;;;;;;;4989116;28;20203;-77
2022/06/16 12:21:08;;;;;;;3.03;2.20;;;;;;;;;;5006352;28;20187;-75
2022/06/16 12:23:53;;;;;;;3.23;2.63;;;;;;;;;;4997763;28;20187;-75
2022/06/16 12:26:31;;;;;;;4.97;2.50;;;;;;;;;;5008828;28;20599;-75
2022/06/16 12:29:12;;;;;;;5.27;2.60;;;;;;;;;;4988959;28;20247;-77
2022/06/16 12:31:45;;;;;;;3.40;2.60;;;;;;;;;;5003716;28;20192;-77
2022/06/16 12:34:11;;;;;;;3.83;2.30;;;;;;;;;;5016483;28;20274;-77
2022/06/16 12:36:42;;;;;;;3.70;2.60;;;;;;;;;;4998793;28;20215;-78
2022/06/16 12:39:21;;;;;;;3.83;2.27;;;;;;;;;;4996657;28;20269;-77
2022/06/16 12:41:49;;;;;;;4.00;2.43;;;;;;;;;;4989487;28;20214;-78
2022/06/16 12:44:24;;;;;;;3.20;2.27;;;;;;;;;;4989825;28;20196;-77
2022/06/16 12:46:52;;;;;;;2.53;2.20;;;;;;;;;;4990257;28;20208;-77
2022/06/16 12:49:27;;;;;;;3.40;2.40;;;;;;;;;;4994318;28;20222;-77
2022/06/16 12:52:01;;;;;;;4.67;2.30;;;;;;;;;;5001303;28;20183;-78
2022/06/16 12:54:29;;;;;;;4.50;2.20;;;;;;;;;;4991424;28;20189;-78
2022/06/16 12:56:57;;;;;;;2.43;2.23;;;;;;;;;;5008104;28;20230;-77
2022/06/16 12:59:36;;;;;;;3.37;2.30;;;;;;;;;;4988103;28;20192;-79
2022/06/16 13:02:04;;;;;;;2.13;1.93;;;;;;;;;;4987112;28;20658;-78
2022/06/16 13:04:31;;;;;;;4.47;2.20;;;;;;;;;;4997367;28;20195;-78
2022/06/16 13:06:59;;;;;;;2.80;2.27;;;;;;;;;;4994078;28;20308;-78
2022/06/16 13:09:25;;;;;;;4.03;1.90;;;;;;;;;;4995688;28;20221;-78
2022/06/16 13:12:01;;;;;;;2.93;2.30;;;;;;;;;;4993414;28;20216;-79
2022/06/16 13:14:30;;;;;;;2.10;1.90;;;;;;;;;;4999186;28;20275;-78
2022/06/16 13:16:59;;;;;;;2.77;2.37;;;;;;;;;;4995950;28;20280;-78
2022/06/16 13:19:26;;;;;;;2.53;2.20;;;;;;;;;;4990941;28;20281;-76
2022/06/16 13:21:57;;;;;;;3.50;2.22;;;;;;;;;;4994122;28;20663;-76
2022/06/16 13:24:45;;;;;;;2.20;2.00;;;;;;;;;;4990707;28;20191;-73
2022/06/16 13:27:23;;;;;;;1.92;1.80;;;;;;;;;;4979390;28;20227;-76
2022/06/16 13:29:52;;;;;;;4.07;2.30;;;;;;;;;;4990036;28;20562;-77
2022/06/16 13:32:22;;;;;;;3.05;2.05;;;;;;;;;;5002485;28;20232;-78
2022/06/16 13:34:51;;;;;;;2.60;2.17;;;;;;;;;;4989905;28;20182;-77
2022/06/16 13:37:27;;;;;;;3.55;1.95;;;;;;;;;;4987627;28;20197;-79
2022/06/16 13:39:54;;;;;;;2.75;1.98;;;;;;;;;;4999804;28;20316;-77
2022/06/16 13:42:22;;;;;;;2.05;1.80;;;;;;;;;;4990982;28;20666;-77
2022/06/16 13:45:07;;;;;;;2.20;1.70;;;;;;;;;;4978125;28;20239;-76
2022/06/16 13:47:33;;;;;;;1.85;1.60;;;;;;;;;;4993123;28;20688;-76
2022/06/16 13:50:00;;;;;;;2.55;1.80;;;;;;;;;;5000045;28;20203;-77
2022/06/16 13:52:34;;;;;;;2.35;1.60;;;;;;;;;;4992365;28;20252;-76
2022/06/16 13:55:19;;;;;;;2.30;1.90;;;;;;;;;;4990878;28;20219;-76
2022/06/16 13:57:45;;;;;;;2.10;1.80;;;;;;;;;;4992226;28;20225;-75
2022/06/16 14:00:29;;;;;;;1.60;1.50;;;;;;;;;;4990982;28;20700;-77
2022/06/16 14:02:57;;;;;;;4.38;1.85;;;;;;;;;;4993560;28;20190;-76
2022/06/16 14:05:31;;;;;;;7.60;1.90;;;;;;;;;;4991907;28;20196;-78
2022/06/16 14:08:00;;;;;;;3.75;2.10;;;;;;;;;;4991778;28;20201;-78
2022/06/16 14:10:34;;;;;;;1.80;1.50;;;;;;;;;;4993627;28;20220;-77
2022/06/16 14:13:00;;;;;;;3.13;1.88;;;;;;;;;;4994074;28;20184;-78
2022/06/16 14:15:47;;;;;;;2.40;1.70;;;;;;;;;;5010790;28;20246;-78
2022/06/16 14:18:25;;;;;;;1.92;1.60;;;;;;;;;;4993926;28;20197;-76
2022/06/16 14:20:54;;;;;;;1.95;1.50;;;;;;;;;;4989560;28;20190;-76
2022/06/16 14:23:49;;;;;;;1.90;1.80;;;;;;;;;;4992242;28;20567;-76
2022/06/16 14:26:19;;;;;;;1.60;1.50;;;;;;;;;;4990253;28;20181;-76
2022/06/16 14:28:46;;;;;;;1.55;1.45;;;;;;;;;;4999357;28;20196;-76
2022/06/16 14:31:25;;;;;;;4.10;1.98;;;;;;;;;;5001882;28;20592;-76
2022/06/16 14:34:06;;;;;;;2.58;1.75;;;;;;;;;;4994441;28;20600;-76
2022/06/16 14:36:56;;;;;;;2.38;1.60;;;;;;;;;;4991708;28;20228;-76
2022/06/16 14:39:25;;;;;;;3.38;1.85;;;;;;;;;;4979631;28;20614;-76
2022/06/16 14:42:01;;;;;;;2.00;1.52;;;;;;;;;;4975313;28;20694;-78
2022/06/16 14:44:31;;;;;;;4.05;1.70;;;;;;;;;;5003465;28;20592;-77
2022/06/16 14:47:21;;;;;;;1.70;1.60;;;;;;;;;;5010786;28;20726;-76
2022/06/16 14:49:59;;;;;;;1.80;1.70;;;;;;;;;;4991939;28;20240;-76
2022/06/16 14:52:29;;;;;;;2.50;1.67;;;;;;;;;;4993921;28;20182;-76
2022/06/16 14:55:04;;;;;;;1.58;1.48;;;;;;;;;;5005295;28;20203;-76
2022/06/16 14:57:31;;;;;;;1.60;1.50;;;;;;;;;;4996050;28;20619;-75
2022/06/16 15:00:00;;;;;;;4.97;1.60;;;;;;;;;;5001151;28;20194;-77
2022/06/16 15:02:29;;;;;;;1.92;1.58;;;;;;;;;;4996054;28;20186;-77
2022/06/16 15:04:58;;;;;;;1.65;1.55;;;;;;;;;;5003432;28;20712;-77
2022/06/16 15:07:25;;;;;;;1.80;1.50;;;;;;;;;;4995279;28;20208;-76
2022/06/16 15:09:52;;;;;;;2.83;1.60;;;;;;;;;;4993875;28;20194;-76
2022/06/16 15:12:18;;;;;;;1.77;1.67;;;;;;;;;;5001261;28;20227;-76
2022/06/16 15:14:46;;;;;;;1.70;1.60;;;;;;;;;;4997809;28;20180;-77
2022/06/16 15:20:02;;;;;;;3.30;1.92;;;;;;;;;;4994148;28;20218;-78
2022/06/16 15:22:33;;;;;;;2.13;1.60;;;;;;;;;;5003380;28;20192;-75
2022/06/16 15:25:01;;;;;;;1.60;1.50;;;;;;;;;;5008383;28;20186;-76
2022/06/16 15:27:27;;;;;;;1.83;1.63;;;;;;;;;;4997649;28;20268;-83
2022/06/16 15:29:53;;;;;;;3.15;1.80;;;;;;;;;;4991384;28;20243;-78
2022/06/16 15:38:08;;;;;;;4.00;1.77;;;;;;;;;;4996232;28;20207;-77
2022/06/16 15:40:35;;;;;;;1.95;1.75;;;;;;;;;;4992567;28;20544;-77
2022/06/16 15:43:02;;;;;;;2.08;1.40;;;;;;;;;;5000309;28;20197;-81